メインページ
METAR-TAF:

METAR-TAF

空港 :

ジブラルタル, ジブラルタル

ジブラルタル国際空港

緯度: 36-09N, 経度: 005-21W, 海抜: 5m

現時点の気象観測

当レポートは1時間6分前の22:50(UTC)に作成
東/南東の風 2kt
気温 14°C
湿度 72%
気圧 1010 hPa
視程10km以上

METAR: LXGB 242250Z AUTO 11002KT 9999 // FEW023/// BKN043/// 14/09 Q1010

時間: 00:56 (23:56 UTC)

予報

当レポートは7時間38分前の16:18(UTC)に作成
予報は24日の 18時(UTC)から 24日の 22時(UTC)まで有効
の風 10kt
視程10km以上
高度3000ftの千切れ雲あり

TAF: LXGB 241618Z 2418/2422 09010KT 9999 BKN030

4,000以上の空港の気象観測と天気予報(METAR報とTAF報)

利用可能な観測所は地図上に黄色い丸と赤い丸で示す。

丸の上にカーソルを重ねると観測所名を参照できる。

次にクリックすると気象観測と天気予報を参照できる。

マップの切り替え:黒色「×」印の緑ボタンをクリックして拡大、「-」印の緑ボタンをクリックして縮小、緑色の三角印をクリックして隣りの地図に切り替え


METAR-TAF: